createdAt,value
2023-04-04T00:01:13.084Z,99385.85
2023-04-04T00:03:43.446Z,99381.17
2023-04-04T00:06:12.625Z,99381.18
2023-04-04T00:08:41.610Z,99383.55
2023-04-04T00:11:16.544Z,99385.35
2023-04-04T00:13:46.665Z,99383.83
2023-04-04T00:16:15.271Z,99385.81
2023-04-04T00:18:43.946Z,99381.59
2023-04-04T00:21:12.295Z,99386.58
2023-04-04T00:23:40.811Z,99389.48
2023-04-04T00:26:09.496Z,99397.68
2023-04-04T00:28:38.182Z,99403.81
2023-04-04T00:31:06.912Z,99410.20
2023-04-04T00:33:37.311Z,99407.40
2023-04-04T00:36:06.123Z,99403.69
2023-04-04T00:38:37.960Z,99412.42
2023-04-04T00:41:07.052Z,99413.34
2023-04-04T00:43:36.764Z,99412.05
2023-04-04T00:46:05.599Z,99408.04
2023-04-04T00:48:34.247Z,99407.85
2023-04-04T00:51:02.933Z,99412.84
2023-04-04T00:53:36.133Z,99411.58
2023-04-04T00:56:04.713Z,99404.27
2023-04-04T00:58:34.221Z,99400.91
2023-04-04T01:01:02.928Z,99403.73
2023-04-04T01:03:34.192Z,99407.06
2023-04-04T01:06:03.150Z,99406.09
2023-04-04T01:08:31.761Z,99400.15
2023-04-04T01:11:01.555Z,99400.75
2023-04-04T01:13:31.568Z,99399.73
2023-04-04T01:16:03.123Z,99403.67
2023-04-04T01:18:32.938Z,99411.04
2023-04-04T01:21:05.008Z,99414.02
2023-04-04T01:23:57.863Z,99411.67
2023-04-04T01:26:30.847Z,99422.34
2023-04-04T01:29:02.713Z,99426.17
2023-04-04T01:31:46.761Z,99431.11
2023-04-04T01:34:24.875Z,99436.75
2023-04-04T01:37:03.186Z,99434.46
2023-04-04T01:39:45.192Z,99431.52
2023-04-04T01:42:15.225Z,99434.55
2023-04-04T01:44:46.146Z,99431.69
2023-04-04T01:47:15.554Z,99434.52
2023-04-04T01:49:44.958Z,99433.54
2023-04-04T01:52:16.000Z,99432.06
2023-04-04T01:54:45.099Z,99429.40
2023-04-04T01:57:14.305Z,99424.61
2023-04-04T01:59:43.096Z,99419.06
2023-04-04T02:02:12.802Z,99419.77
2023-04-04T02:04:41.650Z,99419.11
2023-04-04T02:07:10.793Z,99409.77
2023-04-04T02:09:40.014Z,99406.77
2023-04-04T02:12:09.295Z,99397.91
2023-04-04T02:14:38.289Z,99398.57
2023-04-04T02:17:07.284Z,99395.22
2023-04-04T02:19:36.175Z,99397.45
2023-04-04T02:22:09.069Z,99398.38
2023-04-04T02:24:38.263Z,99392.33
2023-04-04T02:27:07.052Z,99383.95
2023-04-04T02:29:35.843Z,99383.45
2023-04-04T02:32:04.534Z,99379.70
2023-04-04T02:34:34.144Z,99378.92
2023-04-04T02:37:04.259Z,99382.69
2023-04-04T02:39:33.253Z,99382.64
2023-04-04T02:42:02.149Z,99383.48
2023-04-04T02:44:31.144Z,99391.10
2023-04-04T02:47:03.031Z,99395.92
2023-04-04T02:49:33.129Z,99399.38
2023-04-04T02:52:02.020Z,99405.30
2023-04-04T02:54:34.721Z,99402.91
2023-04-04T02:57:05.028Z,99406.81
2023-04-04T02:59:34.149Z,99399.66
2023-04-04T03:02:02.866Z,99397.75
2023-04-04T03:04:33.040Z,99400.52
2023-04-04T03:07:01.422Z,99405.02
2023-04-04T03:09:31.234Z,99408.05
2023-04-04T03:12:01.153Z,99409.52
2023-04-04T03:14:35.283Z,99410.77
2023-04-04T03:17:04.057Z,99414.74
2023-04-04T03:19:33.359Z,99421.91
2023-04-04T03:22:01.845Z,99432.16
2023-04-04T03:24:32.475Z,99432.61
2023-04-04T03:27:02.190Z,99435.16
2023-04-04T03:29:32.519Z,99434.76
2023-04-04T03:32:02.395Z,99431.22
2023-04-04T03:34:32.246Z,99426.84
2023-04-04T03:37:01.134Z,99421.16
2023-04-04T03:39:30.535Z,99429.67
2023-04-04T03:41:59.230Z,99429.54
2023-04-04T03:44:27.715Z,99429.14
2023-04-04T03:46:56.601Z,99426.72
2023-04-04T03:49:27.438Z,99428.33
2023-04-04T03:51:56.229Z,99430.68
2023-04-04T03:54:26.672Z,99429.29
2023-04-04T03:56:55.503Z,99428.20
2023-04-04T03:59:24.444Z,99423.14
2023-04-04T04:01:53.230Z,99430.14
2023-04-04T04:04:21.775Z,99436.84
2023-04-04T04:06:50.502Z,99440.68
2023-04-04T04:09:19.395Z,99445.25
2023-04-04T04:11:48.905Z,99446.80
2023-04-04T04:14:18.309Z,99442.95
2023-04-04T04:16:47.406Z,99441.41
2023-04-04T04:19:18.137Z,99441.66
2023-04-04T04:21:46.934Z,99444.38
2023-04-04T04:24:15.930Z,99457.09
2023-04-04T04:26:45.738Z,99461.15
2023-04-04T04:29:17.611Z,99461.09
2023-04-04T04:31:46.220Z,99452.40
2023-04-04T04:34:14.672Z,99453.73
2023-04-04T04:36:43.563Z,99452.52
2023-04-04T04:39:23.110Z,99450.53
2023-04-04T04:42:10.227Z,99451.25
2023-04-04T04:44:43.522Z,99455.44
2023-04-04T04:47:12.316Z,99455.55
2023-04-04T04:49:43.873Z,99450.48
2023-04-04T04:52:13.893Z,99451.07
2023-04-04T04:54:46.938Z,99448.77
2023-04-04T04:57:15.463Z,99450.13
2023-04-04T04:59:44.561Z,99448.88
2023-04-04T05:02:17.004Z,99454.80
2023-04-04T05:04:47.371Z,99454.88
2023-04-04T05:07:16.664Z,99458.09
2023-04-04T05:09:51.300Z,99462.64
2023-04-04T05:12:22.233Z,99465.48
2023-04-04T05:14:52.352Z,99468.64
2023-04-04T05:17:23.746Z,99474.54
2023-04-04T05:19:54.471Z,99486.84
2023-04-04T05:22:23.427Z,99490.17
2023-04-04T05:24:53.353Z,99484.56
2023-04-04T05:27:24.900Z,99476.65
2023-04-04T05:29:58.433Z,99465.34
2023-04-04T05:32:35.854Z,99455.54
2023-04-04T05:35:09.828Z,99448.35
2023-04-04T05:37:41.463Z,99449.65
2023-04-04T05:40:16.294Z,99460.02
2023-04-04T05:42:57.169Z,99470.23
2023-04-04T05:45:27.596Z,99470.36
2023-04-04T05:47:57.553Z,99474.88
2023-04-04T05:50:27.336Z,99471.98
2023-04-04T05:53:03.307Z,99481.67
2023-04-04T05:55:31.868Z,99488.31
2023-04-04T05:58:04.346Z,99490.45
2023-04-04T06:00:45.537Z,99491.88
2023-04-04T06:03:14.883Z,99492.95
2023-04-04T06:05:44.687Z,99493.11
2023-04-04T06:08:14.666Z,99496.31
2023-04-04T06:10:43.050Z,99496.06
2023-04-04T06:13:11.751Z,99497.13
2023-04-04T06:15:41.841Z,99487.80
2023-04-04T06:18:10.693Z,99488.05
2023-04-04T06:20:40.145Z,99492.42
2023-04-04T06:23:10.315Z,99491.05
2023-04-04T06:25:42.020Z,99491.46
2023-04-04T06:28:11.626Z,99484.60
2023-04-04T06:30:40.605Z,99481.65
2023-04-04T06:33:12.395Z,99481.08
2023-04-04T06:35:45.690Z,99476.86
2023-04-04T06:38:15.901Z,99470.98
2023-04-04T06:40:45.712Z,99466.41
2023-04-04T06:43:14.381Z,99466.58
2023-04-04T06:45:46.874Z,99469.23
2023-04-04T06:48:16.792Z,99470.67
2023-04-04T06:50:45.177Z,99474.23
2023-04-04T06:53:16.005Z,99465.70
2023-04-04T06:55:45.820Z,99464.56
2023-04-04T06:58:19.422Z,99459.77
2023-04-04T07:00:48.231Z,99466.34
2023-04-04T07:03:18.190Z,99467.02
2023-04-04T07:05:46.836Z,99472.50
2023-04-04T07:08:16.015Z,99473.11
2023-04-04T07:10:44.755Z,99473.78
2023-04-04T07:13:14.925Z,99472.89
2023-04-04T07:15:49.053Z,99479.96
2023-04-04T07:18:17.419Z,99479.74
2023-04-04T07:20:52.660Z,99481.41
2023-04-04T07:23:26.365Z,99483.48
2023-04-04T07:25:56.194Z,99488.26
2023-04-04T07:28:25.481Z,99486.62
2023-04-04T07:30:59.767Z,99490.77
2023-04-04T07:33:29.506Z,99498.18
2023-04-04T07:35:58.256Z,99501.41
2023-04-04T07:38:35.078Z,99508.71
2023-04-04T07:41:04.373Z,99510.80
2023-04-04T07:43:34.292Z,99508.34
2023-04-04T07:46:02.812Z,99507.05
2023-04-04T07:48:31.978Z,99503.42
2023-04-04T07:51:04.663Z,99496.41
2023-04-04T07:53:33.345Z,99502.31
2023-04-04T07:56:06.938Z,99501.80
2023-04-04T07:58:37.784Z,99507.43
2023-04-04T08:01:06.768Z,99507.80
2023-04-04T08:03:37.007Z,99506.00
2023-04-04T08:06:06.391Z,99507.23
2023-04-04T08:08:34.772Z,99506.14
2023-04-04T08:11:04.180Z,99513.83
2023-04-04T08:13:33.681Z,99512.98
2023-04-04T08:16:02.205Z,99512.70
2023-04-04T08:18:31.772Z,99518.63
2023-04-04T08:21:00.155Z,99518.89
2023-04-04T08:23:30.168Z,99521.36
2023-04-04T08:26:00.393Z,99517.69
2023-04-04T08:28:28.806Z,99518.42
2023-04-04T08:30:57.258Z,99515.02
2023-04-04T08:33:44.340Z,99512.11
2023-04-04T08:36:16.411Z,99506.99
2023-04-04T08:38:47.990Z,99508.41
2023-04-04T08:41:16.450Z,99508.29
2023-04-04T08:43:54.811Z,99510.84
2023-04-04T08:46:24.465Z,99515.34
2023-04-04T08:48:54.008Z,99518.59
2023-04-04T08:51:22.407Z,99519.65
2023-04-04T08:53:55.074Z,99523.00
2023-04-04T08:56:24.071Z,99521.70
2023-04-04T08:58:52.496Z,99522.41
2023-04-04T09:01:21.253Z,99525.40
2023-04-04T09:03:59.346Z,99525.05
2023-04-04T09:06:28.142Z,99523.70
2023-04-04T09:08:57.786Z,99526.67
2023-04-04T09:11:26.638Z,99526.98
2023-04-04T09:13:55.122Z,99534.05
2023-04-04T09:16:24.248Z,99534.74
2023-04-04T09:18:53.219Z,99529.16
2023-04-04T09:21:24.049Z,99531.36
2023-04-04T09:24:00.525Z,99524.20
2023-04-04T09:26:29.105Z,99517.94
2023-04-04T09:28:57.690Z,99512.92
2023-04-04T09:31:27.638Z,99514.16
2023-04-04T09:33:56.100Z,99516.83
2023-04-04T09:36:24.515Z,99520.14
2023-04-04T09:38:53.059Z,99516.05
2023-04-04T09:41:21.839Z,99517.16
2023-04-04T09:43:50.327Z,99516.67
2023-04-04T09:46:21.836Z,99515.94
2023-04-04T09:51:18.542Z,99508.22
2023-04-04T09:53:51.015Z,99504.35
2023-04-04T09:56:20.007Z,99499.91
2023-04-04T09:59:02.711Z,99495.13
2023-04-04T10:01:34.143Z,99491.70
2023-04-04T10:04:04.426Z,99492.02
2023-04-04T10:06:33.501Z,99489.18
2023-04-04T10:09:08.140Z,99488.95
2023-04-04T10:11:37.026Z,99491.19
2023-04-04T10:14:05.608Z,99491.71
2023-04-04T10:16:35.152Z,99495.67
2023-04-04T10:19:04.845Z,99499.00
2023-04-04T10:21:33.939Z,99506.48
2023-04-04T10:24:05.076Z,99508.64
2023-04-04T10:26:33.554Z,99504.06
2023-04-04T10:29:02.346Z,99510.74
2023-04-04T10:31:30.911Z,99515.66
2023-04-04T10:34:22.863Z,99515.95
2023-04-04T10:36:55.071Z,99511.66
2023-04-04T10:39:27.527Z,99511.55
2023-04-04T10:41:56.810Z,99510.52
2023-04-04T10:44:34.009Z,99509.88
2023-04-04T10:47:18.367Z,99513.90
2023-04-04T10:49:47.652Z,99517.18
2023-04-04T10:52:17.080Z,99514.40
2023-04-04T10:54:45.955Z,99518.20
2023-04-04T10:57:14.546Z,99525.51
2023-04-04T11:00:10.895Z,99528.06
2023-04-04T11:02:44.962Z,99523.79
2023-04-04T11:05:18.556Z,99523.74
2023-04-04T11:08:00.685Z,99523.27
2023-04-04T11:10:41.672Z,99522.56
2023-04-04T11:13:35.901Z,99513.56
2023-04-04T11:16:08.030Z,99511.59
2023-04-04T11:18:45.767Z,99515.16
2023-04-04T11:21:16.974Z,99520.41
2023-04-04T11:23:48.542Z,99516.13
2023-04-04T11:26:26.675Z,99516.59
2023-04-04T11:28:58.868Z,99516.63
2023-04-04T11:31:33.906Z,99519.83
2023-04-04T11:34:06.522Z,99517.46
2023-04-04T11:36:38.001Z,99518.34
2023-04-04T11:39:10.761Z,99517.27
2023-04-04T11:41:57.876Z,99510.30
2023-04-04T11:44:30.878Z,99507.60
2023-04-04T11:47:11.979Z,99505.56
2023-04-04T11:49:42.859Z,99503.30
2023-04-04T11:52:15.572Z,99504.27
2023-04-04T11:54:45.254Z,99495.81
2023-04-04T11:57:14.998Z,99490.30
2023-04-04T11:59:45.769Z,99494.11
2023-04-04T12:02:32.175Z,99494.34
2023-04-04T12:05:01.237Z,99495.67
2023-04-04T12:07:32.475Z,99492.61
2023-04-04T12:10:01.887Z,99493.09
2023-04-04T12:12:31.391Z,99490.07
2023-04-04T12:15:06.622Z,99490.02
2023-04-04T12:17:44.584Z,99491.68
2023-04-04T12:20:15.781Z,99489.79
2023-04-04T12:22:45.799Z,99488.94
2023-04-04T12:25:14.285Z,99484.91
2023-04-04T12:27:45.234Z,99482.80
2023-04-04T12:30:16.275Z,99485.00
2023-04-04T12:32:46.334Z,99486.98
2023-04-04T12:35:17.347Z,99491.89
2023-04-04T12:38:07.676Z,99489.70
2023-04-04T12:40:38.962Z,99484.55
2023-04-04T12:43:09.653Z,99481.89
2023-04-04T12:45:40.546Z,99487.18
2023-04-04T12:48:14.208Z,99484.34
2023-04-04T12:51:10.286Z,99480.45
2023-04-04T12:53:53.855Z,99481.09
2023-04-04T12:56:25.375Z,99479.05
2023-04-04T12:58:53.991Z,99474.98
2023-04-04T13:01:22.391Z,99467.47
2023-04-04T13:03:52.488Z,99464.83
2023-04-04T13:06:21.755Z,99464.10
2023-04-04T13:08:53.427Z,99463.21
2023-04-04T13:11:22.113Z,99460.90
2023-04-04T13:14:01.882Z,99464.49
2023-04-04T13:16:31.417Z,99463.00
2023-04-04T13:19:04.261Z,99461.98
2023-04-04T13:21:33.309Z,99461.42
2023-04-04T13:24:02.607Z,99461.39
2023-04-04T13:26:31.872Z,99460.06
2023-04-04T13:29:00.340Z,99459.48
2023-04-04T13:31:35.378Z,99457.14
2023-04-04T13:34:04.283Z,99455.40
2023-04-04T13:36:32.634Z,99448.98
2023-04-04T13:39:01.956Z,99450.09
2023-04-04T13:41:30.848Z,99453.36
2023-04-04T13:44:00.252Z,99453.15
2023-04-04T13:46:29.592Z,99457.80
2023-04-04T13:48:58.256Z,99457.84
2023-04-04T13:51:26.932Z,99459.38
2023-04-04T13:53:55.654Z,99455.86
2023-04-04T13:56:24.979Z,99456.77
2023-04-04T13:58:54.366Z,99455.83
2023-04-04T14:01:24.918Z,99454.95
2023-04-04T14:03:54.610Z,99450.62
2023-04-04T14:06:23.786Z,99449.20
2023-04-04T14:08:52.981Z,99443.05
2023-04-04T14:11:22.483Z,99440.35
2023-04-04T14:13:52.573Z,99437.04
2023-04-04T14:16:22.251Z,99437.09
2023-04-04T14:18:50.594Z,99441.22
2023-04-04T14:21:19.180Z,99437.59
2023-04-04T14:23:47.777Z,99436.66
2023-04-04T14:26:17.168Z,99438.20
2023-04-04T14:28:46.881Z,99440.05
2023-04-04T14:31:15.700Z,99440.67
2023-04-04T14:33:44.269Z,99443.59
2023-04-04T14:36:12.661Z,99445.89
2023-04-04T14:38:41.023Z,99443.40
2023-04-04T14:41:09.810Z,99439.61
2023-04-04T14:43:38.603Z,99435.94
2023-04-04T14:46:09.268Z,99432.87
2023-04-04T14:48:37.826Z,99435.70
2023-04-04T14:51:06.307Z,99432.49
2023-04-04T14:53:35.100Z,99423.29
2023-04-04T14:56:03.590Z,99431.19
2023-04-04T14:58:34.213Z,99432.58
2023-04-04T15:01:02.937Z,99438.02
2023-04-04T15:03:41.737Z,99433.63
2023-04-04T15:06:10.520Z,99432.19
2023-04-04T15:08:38.901Z,99433.52
2023-04-04T15:11:07.488Z,99432.68
2023-04-04T15:13:36.995Z,99433.11
2023-04-04T15:16:06.307Z,99434.66
2023-04-04T15:18:35.497Z,99434.69
2023-04-04T15:21:04.853Z,99434.59
2023-04-04T15:23:33.796Z,99434.09
2023-04-04T15:26:03.507Z,99436.06
2023-04-04T15:28:33.841Z,99436.60
2023-04-04T15:31:04.297Z,99435.30
2023-04-04T15:33:33.157Z,99433.94
2023-04-04T15:36:01.432Z,99432.63
2023-04-04T15:38:30.434Z,99432.73
2023-04-04T15:40:59.427Z,99430.92
2023-04-04T15:43:28.229Z,99428.59
2023-04-04T15:45:56.957Z,99430.27
2023-04-04T15:48:25.590Z,99429.55
2023-04-04T15:50:58.689Z,99428.30
2023-04-04T15:53:27.588Z,99427.67
2023-04-04T15:55:56.366Z,99424.13
2023-04-04T15:58:26.191Z,99418.55
2023-04-04T16:00:57.426Z,99421.30
2023-04-04T16:03:27.501Z,99415.98
2023-04-04T16:05:56.647Z,99413.84
2023-04-04T16:08:25.134Z,99412.68
2023-04-04T16:10:53.816Z,99413.77
2023-04-04T16:13:23.021Z,99408.61
2023-04-04T16:15:55.966Z,99405.60
2023-04-04T16:18:27.603Z,99399.89
2023-04-04T16:20:56.561Z,99397.66
2023-04-04T16:23:25.756Z,99395.36
2023-04-04T16:25:55.368Z,99395.16
2023-04-04T16:28:23.747Z,99392.37
2023-04-04T16:30:53.151Z,99391.05
2023-04-04T16:33:24.001Z,99390.61
2023-04-04T16:35:52.491Z,99388.77
2023-04-04T16:38:21.877Z,99387.56
2023-04-04T16:40:50.875Z,99389.37
2023-04-04T16:43:19.266Z,99385.86
2023-04-04T16:45:48.248Z,99389.97
2023-04-04T16:48:17.186Z,99389.15
2023-04-04T16:50:47.671Z,99385.02
2023-04-04T16:53:16.573Z,99383.35
2023-04-04T16:55:44.946Z,99382.90
2023-04-04T16:58:14.715Z,99384.64
2023-04-04T17:00:44.226Z,99387.08
2023-04-04T17:03:16.846Z,99384.26
2023-04-04T17:05:47.373Z,99380.66
2023-04-04T17:08:15.736Z,99381.74
2023-04-04T17:10:44.141Z,99383.45
2023-04-04T17:13:12.617Z,99385.49
2023-04-04T17:15:42.231Z,99389.56
2023-04-04T17:18:11.179Z,99395.08
2023-04-04T17:20:39.970Z,99397.10
2023-04-04T17:23:08.603Z,99391.70
2023-04-04T17:25:37.296Z,99397.63
2023-04-04T17:28:06.588Z,99394.94
2023-04-04T17:30:35.700Z,99395.48
2023-04-04T17:33:05.645Z,99394.77
2023-04-04T17:35:34.186Z,99393.95
2023-04-04T17:38:08.200Z,99391.85
2023-04-04T17:40:37.416Z,99389.52
2023-04-04T17:43:06.295Z,99386.45
2023-04-04T17:45:35.292Z,99380.17
2023-04-04T17:48:04.274Z,99365.51
2023-04-04T17:50:33.899Z,99354.48
2023-04-04T17:53:03.000Z,99347.90
2023-04-04T17:55:32.316Z,99342.82
2023-04-04T17:58:01.194Z,99340.92
2023-04-04T18:00:30.617Z,99336.15
2023-04-04T18:02:59.782Z,99334.26
2023-04-04T18:05:29.115Z,99336.10
2023-04-04T18:07:58.502Z,99336.34
2023-04-04T18:10:27.392Z,99343.52
2023-04-04T18:12:59.563Z,99351.77
2023-04-04T18:15:28.878Z,99346.19
2023-04-04T18:17:58.598Z,99347.35
2023-04-04T18:20:34.495Z,99351.04
2023-04-04T18:23:07.013Z,99352.19
2023-04-04T18:25:35.395Z,99360.12
2023-04-04T18:28:04.183Z,99368.48
2023-04-04T18:30:35.583Z,99373.38
2023-04-04T18:33:07.654Z,99379.29
2023-04-04T18:35:38.379Z,99390.73
2023-04-04T18:38:07.641Z,99399.46
2023-04-04T18:40:37.393Z,99407.29
2023-04-04T18:43:06.344Z,99412.58
2023-04-04T18:45:40.607Z,99420.67
2023-04-04T18:48:12.011Z,99420.98
2023-04-04T18:50:41.190Z,99418.63
2023-04-04T18:53:09.694Z,99413.42
2023-04-04T18:55:39.613Z,99405.71
2023-04-04T18:58:08.625Z,99397.94
2023-04-04T19:00:37.332Z,99396.77
2023-04-04T19:03:08.119Z,99395.00
2023-04-04T19:05:37.752Z,99399.19
2023-04-04T19:08:10.837Z,99402.88
2023-04-04T19:10:39.620Z,99406.45
2023-04-04T19:13:12.511Z,99404.14
2023-04-04T19:15:41.614Z,99407.58
2023-04-04T19:18:11.346Z,99409.88
2023-04-04T19:20:42.379Z,99409.77
2023-04-04T19:23:15.763Z,99411.02
2023-04-04T19:25:44.144Z,99415.16
2023-04-04T19:28:12.832Z,99419.55
2023-04-04T19:30:50.150Z,99424.92
2023-04-04T19:33:23.537Z,99424.14
2023-04-04T19:36:12.231Z,99419.71
2023-04-04T19:38:42.908Z,99420.89
2023-04-04T19:41:32.894Z,99421.13
2023-04-04T19:44:02.406Z,99424.95
2023-04-04T19:46:33.220Z,99430.44
2023-04-04T19:49:03.457Z,99426.14
2023-04-04T19:51:43.519Z,99429.11
2023-04-04T19:54:12.615Z,99421.48
2023-04-04T19:56:41.305Z,99420.60
2023-04-04T19:59:36.951Z,99417.34
2023-04-04T20:02:06.356Z,99418.16
2023-04-04T20:04:35.082Z,99418.41
2023-04-04T20:07:03.599Z,99417.39
2023-04-04T20:09:34.944Z,99417.33
2023-04-04T20:12:03.531Z,99411.68
2023-04-04T20:14:32.777Z,99411.63
2023-04-04T20:17:01.215Z,99409.72
2023-04-04T20:19:30.333Z,99406.25
2023-04-04T20:21:59.096Z,99408.45
2023-04-04T20:24:31.172Z,99407.92
2023-04-04T20:27:00.083Z,99403.17
2023-04-04T20:29:35.808Z,99398.17
2023-04-04T20:32:08.559Z,99394.33
2023-04-04T20:34:45.761Z,99389.30
2023-04-04T20:37:22.393Z,99383.54
2023-04-04T20:39:55.804Z,99382.66
2023-04-04T20:42:38.775Z,99380.21
2023-04-04T20:45:10.303Z,99382.48
2023-04-04T20:47:50.419Z,99379.94
2023-04-04T20:50:20.832Z,99386.46
2023-04-04T20:52:58.987Z,99386.56
2023-04-04T20:55:32.273Z,99381.83
2023-04-04T20:58:32.140Z,99384.01
2023-04-04T21:01:01.597Z,99381.80
2023-04-04T21:03:37.807Z,99380.23
2023-04-04T21:06:10.715Z,99379.04
2023-04-04T21:08:44.001Z,99376.99
2023-04-04T21:11:12.811Z,99374.89
2023-04-04T21:13:43.744Z,99369.03
2023-04-04T21:16:17.029Z,99368.10
2023-04-04T21:18:46.625Z,99359.60
2023-04-04T21:21:19.749Z,99355.95
2023-04-04T21:23:53.751Z,99359.27
2023-04-04T21:26:33.397Z,99352.85
2023-04-04T21:29:05.279Z,99345.48
2023-04-04T21:31:41.080Z,99345.02
2023-04-04T21:34:10.796Z,99341.89
2023-04-04T21:36:41.436Z,99339.53
2023-04-04T21:39:16.639Z,99332.09
2023-04-04T21:41:45.877Z,99330.38
2023-04-04T21:44:14.774Z,99329.67
2023-04-04T21:46:45.054Z,99326.95
2023-04-04T21:49:13.893Z,99324.86
2023-04-04T21:51:43.280Z,99321.70
2023-04-04T21:54:11.684Z,99315.14
2023-04-04T21:56:40.883Z,99322.70
2023-04-04T21:59:09.665Z,99322.23
2023-04-04T22:01:38.628Z,99322.67
2023-04-04T22:04:08.369Z,99323.30
2023-04-04T22:09:04.601Z,99322.43
2023-04-04T22:11:39.049Z,99322.48
2023-04-04T22:14:08.273Z,99323.02
2023-04-04T22:16:40.313Z,99319.42
2023-04-04T22:19:11.917Z,99315.08
2023-04-04T22:21:48.485Z,99314.73
2023-04-04T22:24:18.809Z,99318.89
2023-04-04T22:26:47.630Z,99317.69
2023-04-04T22:29:16.621Z,99321.16
2023-04-04T22:31:46.389Z,99324.09
2023-04-04T22:34:15.342Z,99324.04
2023-04-04T22:36:46.480Z,99326.78
2023-04-04T22:39:16.443Z,99326.21
2023-04-04T22:41:45.178Z,99323.58
2023-04-04T22:44:14.223Z,99317.20
2023-04-04T22:46:42.672Z,99313.75
2023-04-04T22:49:16.464Z,99311.11
2023-04-04T22:51:46.107Z,99312.69
2023-04-04T22:54:16.100Z,99301.11
2023-04-04T22:56:45.041Z,99301.67
2023-04-04T22:59:18.190Z,99292.45
2023-04-04T23:01:47.643Z,99292.46
2023-04-04T23:04:18.276Z,99287.39
2023-04-04T23:06:46.801Z,99284.39
2023-04-04T23:09:16.304Z,99275.79
2023-04-04T23:11:47.241Z,99280.10
2023-04-04T23:14:20.228Z,99277.88
2023-04-04T23:16:49.325Z,99276.52
2023-04-04T23:19:17.908Z,99271.72
2023-04-04T23:21:49.796Z,99274.33
2023-04-04T23:24:18.816Z,99274.41
2023-04-04T23:26:47.249Z,99274.17
2023-04-04T23:29:16.138Z,99269.70
2023-04-04T23:31:44.629Z,99269.56
2023-04-04T23:34:13.206Z,99274.92
2023-04-04T23:36:41.689Z,99266.78
2023-04-04T23:39:12.112Z,99265.88
2023-04-04T23:41:41.519Z,99262.90
2023-04-04T23:44:09.795Z,99262.55
2023-04-04T23:46:40.184Z,99260.73
2023-04-04T23:49:11.162Z,99261.27
2023-04-04T23:51:45.378Z,99260.27
2023-04-04T23:54:14.273Z,99260.27
2023-04-04T23:56:42.863Z,99258.71
2023-04-04T23:59:11.743Z,99257.06
